Time,TemperatureF,DewpointF,PressureIn,WindDirection,WindDirectionDegrees,WindSpeedMPH,WindSpeedGustMPH,Humidity,HourlyPrecipIn,Conditions,Clouds,dailyrainin,SolarRadiationWatts/m^2,SoftwareType,DateUTC
2013-05-11 00:07:00,46.2,45.0,29.92,SSW,199,2.0,6.0,95,0.00,,,0.05,0,weatherlink.com 1.10,2013-05-11 05:07:00,
2013-05-11 00:22:00,45.7,44.0,29.92,SSW,199,0.0,3.0,94,0.00,,,0.00,0,weatherlink.com 1.10,2013-05-11 05:22:00,
2013-05-11 00:37:00,45.2,44.0,29.92,SSW,199,4.0,6.0,94,0.00,,,0.00,0,weatherlink.com 1.10,2013-05-11 05:37:00,
2013-05-11 00:52:00,45.5,44.0,29.91,SSW,200,2.0,5.0,95,0.00,,,0.00,0,weatherlink.com 1.10,2013-05-11 05:52:00,
2013-05-11 01:07:00,44.5,43.0,29.91,SSW,200,2.0,3.0,94,0.00,,,0.00,0,weatherlink.com 1.10,2013-05-11 06:07:00,
2013-05-11 01:22:00,44.6,43.0,29.90,SW,214,7.0,9.0,95,0.00,,,0.00,0,weatherlink.com 1.10,2013-05-11 06:22:00,
2013-05-11 01:37:00,44.6,43.0,29.90,SW,218,7.0,9.0,95,0.00,,,0.00,0,weatherlink.com 1.10,2013-05-11 06:37:00,
2013-05-11 01:52:00,44.7,43.0,29.90,SW,219,6.0,8.0,95,0.01,,,0.01,0,weatherlink.com 1.10,2013-05-11 06:52:00,
2013-05-11 02:07:00,44.6,44.0,29.89,SW,219,8.0,9.0,96,0.01,,,0.01,0,weatherlink.com 1.10,2013-05-11 07:07:00,
2013-05-11 02:22:00,45.5,45.0,29.89,SW,234,7.0,10.0,96,0.01,,,0.01,0,weatherlink.com 1.10,2013-05-11 07:22:00,
2013-05-11 02:37:00,45.6,45.0,29.89,SW,231,7.0,11.0,96,0.01,,,0.01,0,weatherlink.com 1.10,2013-05-11 07:37:00,
2013-05-11 02:52:00,45.0,44.0,29.88,SW,219,7.0,8.0,95,0.00,,,0.01,0,weatherlink.com 1.10,2013-05-11 07:52:00,
2013-05-11 03:07:00,44.4,43.0,29.88,SW,215,6.0,8.0,95,0.00,,,0.01,0,weatherlink.com 1.10,2013-05-11 08:07:00,
2013-05-11 03:22:00,44.0,43.0,29.87,South,186,5.0,7.0,95,0.00,,,0.01,0,weatherlink.com 1.10,2013-05-11 08:22:00,
2013-05-11 03:37:00,43.2,42.0,29.87,South,186,5.0,6.0,96,0.00,,,0.01,0,weatherlink.com 1.10,2013-05-11 08:37:00,
2013-05-11 03:52:00,43.8,43.0,29.87,South,187,6.0,9.0,96,0.00,,,0.01,0,weatherlink.com 1.10,2013-05-11 08:52:00,
2013-05-11 04:07:00,44.1,43.0,29.86,SSW,196,8.0,11.0,96,0.00,,,0.01,0,weatherlink.com 1.10,2013-05-11 09:07:00,
2013-05-11 04:22:00,44.1,43.0,29.86,SSW,202,7.0,11.0,96,0.00,,,0.01,0,weatherlink.com 1.10,2013-05-11 09:22:00,
2013-05-11 04:37:00,45.0,44.0,29.85,SSW,205,10.0,13.0,97,0.00,,,0.01,0,weatherlink.com 1.10,2013-05-11 09:37:00,
2013-05-11 04:52:00,45.0,44.0,29.85,SSW,207,9.0,14.0,97,0.00,,,0.01,0,weatherlink.com 1.10,2013-05-11 09:52:00,
2013-05-11 05:07:00,45.6,45.0,29.84,SSW,196,11.0,15.0,97,0.00,,,0.01,0,weatherlink.com 1.10,2013-05-11 10:07:00,
2013-05-11 05:22:00,45.7,45.0,29.84,SSW,200,11.0,15.0,97,0.00,,,0.01,0,weatherlink.com 1.10,2013-05-11 10:22:00,
2013-05-11 05:37:00,45.9,45.0,29.83,SW,214,12.0,16.0,97,0.00,,,0.01,0,weatherlink.com 1.10,2013-05-11 10:37:00,
2013-05-11 05:53:00,46.2,45.0,29.83,SSW,210,11.0,16.0,97,0.00,,,0.01,0,weatherlink.com 1.10,2013-05-11 10:53:00,
2013-05-11 06:08:00,46.5,46.0,29.82,SSW,211,11.0,15.0,97,0.00,,,0.01,7,weatherlink.com 1.10,2013-05-11 11:08:00,
2013-05-11 06:23:00,46.6,46.0,29.82,SW,217,13.0,16.0,97,0.00,,,0.01,14,weatherlink.com 1.10,2013-05-11 11:23:00,
2013-05-11 06:38:00,47.2,46.0,29.81,SSW,211,16.0,19.0,97,0.00,,,0.01,11,weatherlink.com 1.10,2013-05-11 11:38:00,
2013-05-11 06:53:00,47.6,47.0,29.81,SW,221,13.0,17.0,97,0.00,,,0.01,28,weatherlink.com 1.10,2013-05-11 11:53:00,
2013-05-11 07:08:00,48.6,48.0,29.81,SW,225,16.0,19.0,97,0.00,,,0.01,74,weatherlink.com 1.10,2013-05-11 12:08:00,
2013-05-11 07:23:00,49.2,48.0,29.81,SW,228,12.0,18.0,96,0.00,,,0.01,107,weatherlink.com 1.10,2013-05-11 12:23:00,
2013-05-11 07:38:00,49.5,48.0,29.80,WSW,244,12.0,18.0,96,0.00,,,0.01,271,weatherlink.com 1.10,2013-05-11 12:38:00,
2013-05-11 07:53:00,50.5,49.0,29.80,WSW,247,11.0,17.0,95,0.00,,,0.01,174,weatherlink.com 1.10,2013-05-11 12:53:00,
2013-05-11 08:08:00,51.2,50.0,29.80,West,276,15.0,19.0,94,0.00,,,0.01,202,weatherlink.com 1.10,2013-05-11 13:08:00,
2013-05-11 08:23:00,51.5,48.0,29.81,NW,305,18.0,28.0,88,0.01,,,0.02,209,weatherlink.com 1.10,2013-05-11 13:23:00,
2013-05-11 08:38:00,51.2,47.0,29.81,NW,305,19.0,29.0,84,0.01,,,0.02,248,weatherlink.com 1.10,2013-05-11 13:38:00,
2013-05-11 08:53:00,51.4,47.0,29.81,WNW,298,24.0,28.0,85,0.01,,,0.02,236,weatherlink.com 1.10,2013-05-11 13:53:00,
2013-05-11 09:08:00,51.2,46.0,29.82,WNW,298,24.0,34.0,83,0.01,,,0.02,183,weatherlink.com 1.10,2013-05-11 14:08:00,
2013-05-11 09:23:00,51.3,46.0,29.83,NW,307,12.0,26.0,83,0.00,,,0.02,265,weatherlink.com 1.10,2013-05-11 14:23:00,
2013-05-11 09:38:00,51.7,44.0,29.84,NW,326,27.0,35.0,74,0.00,,,0.02,657,weatherlink.com 1.10,2013-05-11 14:38:00,
2013-05-11 09:53:00,51.7,42.0,29.84,NNW,332,27.0,38.0,70,0.00,,,0.02,687,weatherlink.com 1.10,2013-05-11 14:53:00,
2013-05-11 10:08:00,52.2,42.0,29.84,NW,324,27.0,35.0,68,0.00,,,0.02,724,weatherlink.com 1.10,2013-05-11 15:08:00,
2013-05-11 10:23:00,52.8,44.0,29.84,NW,318,15.0,30.0,73,0.00,,,0.02,803,weatherlink.com 1.10,2013-05-11 15:23:00,
2013-05-11 10:38:00,53.5,44.0,29.84,NW,315,27.0,32.0,71,0.00,,,0.02,965,weatherlink.com 1.10,2013-05-11 15:38:00,
2013-05-11 10:53:00,53.3,40.0,29.85,NW,311,20.0,33.0,62,0.00,,,0.02,824,weatherlink.com 1.10,2013-05-11 15:53:00,
2013-05-11 11:08:00,53.5,39.0,29.85,NNW,327,21.0,34.0,58,0.00,,,0.02,847,weatherlink.com 1.10,2013-05-11 16:08:00,
2013-05-11 11:23:00,52.8,34.0,29.86,NW,319,33.0,40.0,50,0.00,,,0.02,874,weatherlink.com 1.10,2013-05-11 16:23:00,
2013-05-11 11:38:00,53.6,35.0,29.86,NW,323,29.0,31.0,50,0.00,,,0.02,893,weatherlink.com 1.10,2013-05-11 16:38:00,
2013-05-11 11:53:00,53.3,38.0,29.87,NW,304,26.0,34.0,57,0.00,,,0.02,911,weatherlink.com 1.10,2013-05-11 16:53:00,
2013-05-11 12:08:00,53.3,35.0,29.88,NW,321,19.0,36.0,51,0.00,,,0.02,926,weatherlink.com 1.10,2013-05-11 17:08:00,
2013-05-11 12:23:00,53.5,36.0,29.88,NW,315,29.0,32.0,51,0.00,,,0.02,889,weatherlink.com 1.10,2013-05-11 17:23:00,
2013-05-11 12:38:00,53.3,36.0,29.89,NW,321,23.0,39.0,52,0.00,,,0.02,949,weatherlink.com 1.10,2013-05-11 17:38:00,
2013-05-11 12:53:00,53.1,36.0,29.89,WNW,303,18.0,36.0,53,0.00,,,0.02,983,weatherlink.com 1.10,2013-05-11 17:53:00,
2013-05-11 13:08:00,53.3,35.0,29.89,WNW,297,26.0,36.0,50,0.00,,,0.02,969,weatherlink.com 1.10,2013-05-11 18:08:00,
2013-05-11 13:23:00,53.3,36.0,29.90,NW,325,30.0,40.0,52,0.00,,,0.02,981,weatherlink.com 1.10,2013-05-11 18:23:00,
2013-05-11 13:38:00,53.3,38.0,29.90,NNW,334,17.0,38.0,57,0.00,,,0.02,993,weatherlink.com 1.10,2013-05-11 18:38:00,
2013-05-11 13:53:00,51.8,33.0,29.91,NW,310,20.0,36.0,49,0.00,,,0.02,271,weatherlink.com 1.10,2013-05-11 18:53:00,
2013-05-11 14:08:00,52.2,35.0,29.91,NNW,327,29.0,35.0,53,0.00,,,0.02,1153,weatherlink.com 1.10,2013-05-11 19:08:00,
2013-05-11 14:23:00,51.6,35.0,29.92,NW,319,24.0,37.0,53,0.00,,,0.02,276,weatherlink.com 1.10,2013-05-11 19:23:00,
2013-05-11 14:38:00,52.6,35.0,29.91,NW,310,28.0,32.0,51,0.00,,,0.02,939,weatherlink.com 1.10,2013-05-11 19:38:00,
2013-05-11 14:53:00,53.4,36.0,29.92,WNW,292,32.0,36.0,52,0.00,,,0.02,942,weatherlink.com 1.10,2013-05-11 19:53:00,
2013-05-11 15:08:00,53.4,35.0,29.92,NW,312,27.0,33.0,51,0.00,,,0.02,295,weatherlink.com 1.10,2013-05-11 20:08:00,
2013-05-11 15:23:00,53.2,35.0,29.93,WNW,302,29.0,37.0,51,0.00,,,0.02,912,weatherlink.com 1.10,2013-05-11 20:23:00,
2013-05-11 15:38:00,53.2,34.0,29.93,NW,308,29.0,33.0,48,0.00,,,0.02,904,weatherlink.com 1.10,2013-05-11 20:38:00,
2013-05-11 15:54:00,51.3,36.0,29.94,NW,311,12.0,33.0,56,0.00,,,0.02,810,weatherlink.com 1.10,2013-05-11 20:54:00,
2013-05-11 16:09:00,50.8,32.0,29.94,NW,309,22.0,33.0,49,0.00,,,0.02,153,weatherlink.com 1.10,2013-05-11 21:09:00,
2013-05-11 16:24:00,49.2,35.0,29.94,NW,321,12.0,27.0,58,0.00,,,0.02,677,weatherlink.com 1.10,2013-05-11 21:24:00,
2013-05-11 16:39:00,52.0,32.0,29.94,NW,314,24.0,35.0,46,0.00,,,0.02,638,weatherlink.com 1.10,2013-05-11 21:39:00,
2013-05-11 16:54:00,51.4,32.0,29.94,NW,320,23.0,34.0,47,0.00,,,0.02,148,weatherlink.com 1.10,2013-05-11 21:54:00,
2013-05-11 17:09:00,49.6,33.0,29.96,NW,308,27.0,33.0,53,0.00,,,0.02,582,weatherlink.com 1.10,2013-05-11 22:09:00,
2013-05-11 17:24:00,50.3,31.0,29.96,NW,320,27.0,33.0,48,0.00,,,0.02,475,weatherlink.com 1.10,2013-05-11 22:24:00,
2013-05-11 17:39:00,50.4,30.0,29.97,NW,309,23.0,28.0,45,0.00,,,0.02,424,weatherlink.com 1.10,2013-05-11 22:39:00,
2013-05-11 17:54:00,50.5,31.0,29.97,NW,313,21.0,27.0,48,0.00,,,0.02,373,weatherlink.com 1.10,2013-05-11 22:54:00,
2013-05-11 18:09:00,50.2,33.0,29.97,NW,313,20.0,27.0,51,0.00,,,0.02,334,weatherlink.com 1.10,2013-05-11 23:09:00,
2013-05-11 18:24:00,50.3,31.0,29.97,NW,313,19.0,25.0,48,0.00,,,0.02,237,weatherlink.com 1.10,2013-05-11 23:24:00,
2013-05-11 18:39:00,50.4,30.0,29.97,NW,317,18.0,23.0,46,0.00,,,0.02,295,weatherlink.com 1.10,2013-05-11 23:39:00,
2013-05-11 18:54:00,50.3,31.0,29.97,NNW,333,21.0,27.0,48,0.00,,,0.02,181,weatherlink.com 1.10,2013-05-11 23:54:00,
2013-05-11 19:09:00,48.3,32.0,29.98,NNW,336,9.0,24.0,54,0.00,,,0.02,113,weatherlink.com 1.10,2013-05-12 00:09:00,
2013-05-11 19:24:00,47.6,31.0,29.98,NW,319,14.0,18.0,53,0.00,,,0.02,58,weatherlink.com 1.10,2013-05-12 00:24:00,
2013-05-11 19:39:00,47.2,32.0,29.98,NNW,337,9.0,16.0,55,0.00,,,0.02,51,weatherlink.com 1.10,2013-05-12 00:39:00,
2013-05-11 19:54:00,46.3,32.0,29.98,NNW,330,6.0,10.0,57,0.00,,,0.02,21,weatherlink.com 1.10,2013-05-12 00:54:00,
2013-05-11 20:09:00,44.7,33.0,29.98,NNW,327,5.0,8.0,63,0.00,,,0.02,7,weatherlink.com 1.10,2013-05-12 01:09:00,
2013-05-11 20:24:00,43.6,32.0,29.98,NW,310,5.0,9.0,64,0.00,,,0.02,0,weatherlink.com 1.10,2013-05-12 01:24:00,
2013-05-11 20:39:00,43.1,32.0,29.99,NW,310,5.0,8.0,65,0.00,,,0.02,0,weatherlink.com 1.10,2013-05-12 01:39:00,
2013-05-11 20:54:00,42.7,32.0,29.99,NW,311,7.0,10.0,67,0.00,,,0.02,0,weatherlink.com 1.10,2013-05-12 01:54:00,
2013-05-11 21:09:00,41.8,32.0,30.00,NW,316,7.0,8.0,69,0.00,,,0.02,0,weatherlink.com 1.10,2013-05-12 02:09:00,
2013-05-11 21:24:00,41.6,32.0,30.01,NW,317,8.0,9.0,70,0.00,,,0.02,0,weatherlink.com 1.10,2013-05-12 02:24:00,
2013-05-11 21:39:00,41.8,32.0,30.02,NW,312,9.0,11.0,69,0.00,,,0.02,0,weatherlink.com 1.10,2013-05-12 02:39:00,
2013-05-11 21:54:00,42.9,30.0,30.02,NW,323,16.0,21.0,60,0.00,,,0.02,0,weatherlink.com 1.10,2013-05-12 02:54:00,
2013-05-11 22:09:00,42.6,29.0,30.03,NW,318,14.0,18.0,60,0.00,,,0.02,0,weatherlink.com 1.10,2013-05-12 03:09:00,
2013-05-11 22:24:00,42.0,29.0,30.03,NW,321,14.0,17.0,60,0.00,,,0.02,0,weatherlink.com 1.10,2013-05-12 03:24:00,
2013-05-11 22:39:00,41.4,29.0,30.03,NW,308,13.0,18.0,61,0.00,,,0.02,0,weatherlink.com 1.10,2013-05-12 03:39:00,
2013-05-11 22:54:00,41.1,29.0,30.04,NW,308,11.0,15.0,62,0.00,,,0.02,0,weatherlink.com 1.10,2013-05-12 03:54:00,
2013-05-11 23:09:00,40.7,28.0,30.04,NW,317,12.0,18.0,61,0.00,,,0.02,0,weatherlink.com 1.10,2013-05-12 04:09:00,
2013-05-11 23:24:00,40.3,28.0,30.04,NW,309,11.0,14.0,63,0.00,,,0.02,0,weatherlink.com 1.10,2013-05-12 04:24:00,
2013-05-11 23:41:00,39.2,29.0,30.04,WNW,300,11.0,11.0,66,0.00,,,0.02,0,weatherlink.com 1.10,2013-05-12 04:41:00,
2013-05-11 23:55:00,38.6,29.0,30.04,WNW,298,8.0,10.0,68,0.00,,,0.02,0,weatherlink.com 1.10,2013-05-12 04:55:00,